Time,TemperatureF,DewpointF,PressureIn,WindDirection,WindDirectionDegrees,WindSpeedMPH,WindSpeedGustMPH,Humidity,HourlyPrecipIn,Conditions,Clouds,dailyrainin,SoftwareType,DateUTC
2013-01-25 00:04:00,6.6,-9.4,29.62,NNW,338,0.0,1.3,43,0.00,,,0.00,WSDL version 420,2013-01-25 05:04:00,
2013-01-25 00:06:00,6.6,-9.4,29.62,NNW,338,0.0,1.3,43,0.00,,,0.00,WSDL version 420,2013-01-25 05:06:00,
2013-01-25 00:11:00,6.4,-9.6,29.62,NNW,338,1.0,1.3,43,0.00,,,0.00,WSDL version 420,2013-01-25 05:11:00,
2013-01-25 00:19:00,6.4,-9.6,29.59,NNW,338,0.1,1.3,43,-99.99,,,-99.99,WSDL version 420,2013-01-25 05:19:00,
2013-01-25 00:25:00,6.3,-9.7,29.59,NNW,338,0.4,1.6,43,0.00,,,0.00,WSDL version 420,2013-01-25 05:25:00,
2013-01-25 00:32:00,6.3,-9.7,-100.00,NNW,338,0.0,2.0,43,0.00,,,0.00,WSDL version 420,2013-01-25 05:32:00,
2013-01-25 00:37:00,6.3,-9.7,29.62,NNW,338,0.0,1.1,43,0.00,,,0.00,WSDL version 420,2013-01-25 05:37:00,
2013-01-25 00:43:00,6.3,-9.7,29.62,NNW,338,0.4,2.5,43,0.00,,,0.00,WSDL version 420,2013-01-25 05:43:00,
2013-01-25 00:52:00,6.4,-9.6,29.59,NW,315,0.0,2.0,43,-99.99,,,-99.99,WSDL version 420,2013-01-25 05:52:00,
2013-01-25 00:58:00,6.6,-9.4,29.59,NW,315,0.0,1.6,43,0.00,,,0.00,WSDL version 420,2013-01-25 05:58:00,
2013-01-25 01:03:00,6.6,-9.4,29.59,NW,315,0.0,0.9,43,0.00,,,0.00,WSDL version 420,2013-01-25 06:03:00,
2013-01-25 01:08:00,6.4,-9.6,29.59,NW,315,0.1,1.3,43,0.00,,,0.00,WSDL version 420,2013-01-25 06:08:00,
2013-01-25 01:19:00,6.4,-9.6,29.59,NW,315,0.0,2.0,43,0.00,,,0.00,WSDL version 420,2013-01-25 06:19:00,
2013-01-25 01:25:00,6.3,-9.7,29.59,NW,315,0.0,1.1,43,0.00,,,0.00,WSDL version 420,2013-01-25 06:25:00,
2013-01-25 01:34:00,6.3,-9.7,29.59,NW,315,0.0,0.0,43,0.00,,,0.00,WSDL version 420,2013-01-25 06:34:00,
2013-01-25 01:41:00,6.3,-9.7,29.59,NW,315,0.0,1.1,43,-99.99,,,-99.99,WSDL version 420,2013-01-25 06:41:00,
2013-01-25 01:47:00,6.3,-9.7,29.59,NW,315,0.0,1.6,43,-99.99,,,-99.99,WSDL version 420,2013-01-25 06:47:00,
2013-01-25 01:52:00,6.4,-9.6,29.59,NW,315,0.0,1.6,43,0.00,,,0.00,WSDL version 420,2013-01-25 06:52:00,
2013-01-25 01:58:00,6.5,-9.5,29.59,NW,315,0.0,0.0,43,-99.99,,,-99.99,WSDL version 420,2013-01-25 06:58:00,
2013-01-25 02:04:00,6.6,-9.4,29.59,NW,315,0.0,0.0,43,0.00,,,0.00,WSDL version 420,2013-01-25 07:04:00,
2013-01-25 02:10:00,6.6,-9.4,29.59,NW,315,0.0,0.0,43,0.00,,,0.00,WSDL version 420,2013-01-25 07:10:00,
2013-01-25 02:16:00,6.8,-9.2,29.59,NW,315,0.1,1.3,43,0.00,,,0.00,WSDL version 420,2013-01-25 07:16:00,
2013-01-25 02:22:00,6.9,-9.1,29.59,NW,315,0.2,1.6,43,0.00,,,0.00,WSDL version 420,2013-01-25 07:22:00,
2013-01-25 02:31:00,7.3,-8.8,-100.00,NW,315,0.0,1.6,43,0.00,,,0.00,WSDL version 420,2013-01-25 07:31:00,
2013-01-25 02:37:00,7.4,-8.7,-100.00,NW,315,1.3,1.6,43,0.00,,,0.00,WSDL version 420,2013-01-25 07:37:00,
2013-01-25 02:43:00,7.5,-8.6,29.59,NW,315,0.4,2.2,43,0.00,,,0.00,WSDL version 420,2013-01-25 07:43:00,
2013-01-25 02:49:00,7.7,-8.4,29.59,NW,315,0.0,1.6,43,-99.99,,,-99.99,WSDL version 420,2013-01-25 07:49:00,
2013-01-25 02:55:00,7.9,-8.2,29.59,NW,315,0.0,1.6,43,0.00,,,0.00,WSDL version 420,2013-01-25 07:55:00,
2013-01-25 03:03:00,8.1,-8.1,29.59,NW,315,1.0,3.1,43,0.00,,,0.00,WSDL version 420,2013-01-25 08:03:00,
2013-01-25 03:09:00,8.1,-8.0,29.59,WNW,293,1.6,3.1,43,0.00,,,0.00,WSDL version 420,2013-01-25 08:09:00,
2013-01-25 03:16:00,8.4,-7.7,29.56,WNW,293,1.1,3.1,43,0.00,,,0.00,WSDL version 420,2013-01-25 08:16:00,
2013-01-25 03:22:00,8.4,-7.7,29.56,WNW,293,0.9,2.2,43,0.00,,,0.00,WSDL version 420,2013-01-25 08:22:00,
2013-01-25 03:33:00,8.6,-7.5,29.59,WNW,293,1.2,2.5,43,-99.99,,,-99.99,WSDL version 420,2013-01-25 08:33:00,
2013-01-25 03:42:00,8.6,-7.5,29.59,WNW,293,0.0,2.2,43,0.00,,,0.00,WSDL version 420,2013-01-25 08:42:00,
2013-01-25 03:48:00,8.6,-7.5,29.56,WNW,293,0.0,1.3,43,0.00,,,0.00,WSDL version 420,2013-01-25 08:48:00,
2013-01-25 03:57:00,8.6,-7.5,29.56,WNW,293,0.9,2.7,43,0.00,,,0.00,WSDL version 420,2013-01-25 08:57:00,
2013-01-25 04:05:00,8.8,-7.4,29.56,WNW,293,0.0,2.2,43,-99.99,,,-99.99,WSDL version 420,2013-01-25 09:05:00,
2013-01-25 04:11:00,8.8,-7.3,29.56,WNW,293,0.5,1.6,43,0.00,,,0.00,WSDL version 420,2013-01-25 09:11:00,
2013-01-25 04:17:00,9.0,-7.2,29.53,WNW,293,0.0,1.6,43,0.00,,,0.00,WSDL version 420,2013-01-25 09:17:00,
2013-01-25 04:25:00,9.1,-7.1,29.53,WNW,293,0.0,1.3,43,0.00,,,0.00,WSDL version 420,2013-01-25 09:25:00,
2013-01-25 04:30:00,9.0,-7.2,29.56,WNW,293,0.0,1.1,43,0.00,,,0.00,WSDL version 420,2013-01-25 09:30:00,
2013-01-25 04:36:00,8.8,-7.4,29.56,WNW,293,0.0,0.0,43,0.00,,,0.00,WSDL version 420,2013-01-25 09:36:00,
2013-01-25 04:42:00,8.8,-7.4,29.56,WNW,293,0.0,0.0,43,0.00,,,0.00,WSDL version 420,2013-01-25 09:42:00,
2013-01-25 04:48:00,8.9,-7.3,29.56,WNW,293,0.6,1.6,43,0.00,,,0.00,WSDL version 420,2013-01-25 09:48:00,
2013-01-25 04:53:00,9.1,-7.1,29.56,WNW,293,1.5,2.2,43,0.00,,,0.00,WSDL version 420,2013-01-25 09:53:00,
2013-01-25 04:59:00,9.2,-6.9,29.53,WNW,293,0.6,2.5,43,-99.99,,,-99.99,WSDL version 420,2013-01-25 09:59:00,
2013-01-25 05:05:00,9.3,-6.9,29.53,WNW,293,0.2,2.5,43,0.00,,,0.00,WSDL version 420,2013-01-25 10:05:00,
2013-01-25 05:11:00,9.3,-6.9,29.53,WNW,293,0.0,1.6,43,0.00,,,0.00,WSDL version 420,2013-01-25 10:11:00,
2013-01-25 05:16:00,9.3,-6.9,29.53,WNW,293,0.3,2.2,43,0.00,,,0.00,WSDL version 420,2013-01-25 10:16:00,
2013-01-25 05:22:00,9.4,-6.8,29.53,WNW,293,0.0,2.2,43,0.00,,,0.00,WSDL version 420,2013-01-25 10:22:00,
2013-01-25 05:28:00,9.5,-6.7,29.53,WNW,293,0.0,1.3,43,0.00,,,0.00,WSDL version 420,2013-01-25 10:28:00,
2013-01-25 05:33:00,9.5,-6.7,29.50,WNW,293,0.0,0.0,43,-99.99,,,-99.99,WSDL version 420,2013-01-25 10:33:00,
2013-01-25 05:38:00,9.5,-6.7,29.50,WNW,293,0.0,0.9,43,0.00,,,0.00,WSDL version 420,2013-01-25 10:38:00,
2013-01-25 05:44:00,9.7,-6.5,29.53,WNW,293,0.0,1.3,43,0.00,,,0.00,WSDL version 420,2013-01-25 10:44:00,
2013-01-25 05:50:00,9.7,-6.5,29.53,WNW,293,0.2,1.3,43,0.00,,,0.00,WSDL version 420,2013-01-25 10:50:00,
2013-01-25 05:56:00,9.7,-6.5,29.53,WNW,293,1.0,1.3,43,-99.99,,,-99.99,WSDL version 420,2013-01-25 10:56:00,
2013-01-25 06:02:00,9.7,-6.5,29.50,WNW,293,0.0,1.3,43,-99.99,,,-99.99,WSDL version 420,2013-01-25 11:02:00,
2013-01-25 06:10:00,9.7,-6.5,29.50,WNW,293,0.1,1.3,43,0.00,,,0.00,WSDL version 420,2013-01-25 11:10:00,
2013-01-25 06:17:00,9.7,-6.5,29.50,WNW,293,0.0,1.1,43,0.00,,,0.00,WSDL version 420,2013-01-25 11:17:00,
2013-01-25 06:23:00,9.7,-6.5,29.50,WNW,293,0.2,2.0,43,-99.99,,,-99.99,WSDL version 420,2013-01-25 11:23:00,
2013-01-25 06:29:00,9.9,-6.3,29.53,WNW,293,0.9,2.0,43,-99.99,,,-99.99,WSDL version 420,2013-01-25 11:29:00,
2013-01-25 06:36:00,10.0,-6.2,29.53,WNW,293,0.6,1.6,43,0.00,,,0.00,WSDL version 420,2013-01-25 11:36:00,
2013-01-25 06:42:00,10.2,-6.0,29.53,WNW,293,0.0,1.6,43,-99.99,,,-99.99,WSDL version 420,2013-01-25 11:42:00,
2013-01-25 06:48:00,10.2,-6.0,29.53,WNW,293,0.0,1.1,43,0.00,,,0.00,WSDL version 420,2013-01-25 11:48:00,
2013-01-25 06:54:00,10.2,-6.0,29.53,WNW,293,0.5,1.6,43,0.00,,,0.00,WSDL version 420,2013-01-25 11:54:00,
2013-01-25 07:00:00,10.2,-6.0,29.53,WNW,293,0.9,1.6,43,0.00,,,0.00,WSDL version 420,2013-01-25 12:00:00,
2013-01-25 07:06:00,10.2,-6.0,29.53,WNW,293,1.0,2.5,43,0.00,,,0.00,WSDL version 420,2013-01-25 12:06:00,
2013-01-25 07:12:00,10.2,-6.0,29.53,WNW,293,0.6,2.5,43,0.00,,,0.00,WSDL version 420,2013-01-25 12:12:00,
2013-01-25 07:18:00,10.2,-6.0,-100.00,WNW,293,0.6,1.6,43,0.00,,,0.00,WSDL version 420,2013-01-25 12:18:00,
2013-01-25 07:25:00,10.2,-6.0,29.50,WNW,293,0.7,2.5,43,0.00,,,0.00,WSDL version 420,2013-01-25 12:25:00,
2013-01-25 07:32:00,10.2,-6.0,29.50,WNW,293,0.0,0.9,43,0.00,,,0.00,WSDL version 420,2013-01-25 12:32:00,
2013-01-25 07:38:00,10.2,-6.0,29.50,WNW,293,1.0,2.7,43,-99.99,,,-99.99,WSDL version 420,2013-01-25 12:38:00,
2013-01-25 07:43:00,10.2,-6.0,29.47,WNW,293,0.0,2.7,43,0.00,,,0.00,WSDL version 420,2013-01-25 12:43:00,
2013-01-25 07:53:00,10.4,-5.9,29.47,WNW,293,0.0,1.3,43,0.00,,,0.00,WSDL version 420,2013-01-25 12:53:00,
2013-01-25 07:58:00,10.5,-5.8,-100.00,WNW,293,0.7,2.0,43,0.00,,,0.00,WSDL version 420,2013-01-25 12:58:00,
2013-01-25 08:04:00,10.7,-5.6,29.50,WNW,293,0.6,2.0,43,0.00,,,0.00,WSDL version 420,2013-01-25 13:04:00,
2013-01-25 08:11:00,10.9,-5.4,29.50,WNW,293,0.7,2.5,43,0.00,,,0.00,WSDL version 420,2013-01-25 13:11:00,
2013-01-25 08:16:00,10.9,-5.4,-100.00,WNW,293,1.7,2.9,43,0.00,,,0.00,WSDL version 420,2013-01-25 13:16:00,
2013-01-25 08:23:00,11.0,-5.3,29.50,West,270,2.1,4.0,43,0.00,,,0.00,WSDL version 420,2013-01-25 13:23:00,
2013-01-25 08:32:00,11.3,-5.0,29.47,WSW,248,1.5,2.7,43,0.00,,,0.00,WSDL version 420,2013-01-25 13:32:00,
2013-01-25 08:37:00,11.4,-4.9,29.47,WSW,248,1.0,2.5,43,0.00,,,0.00,WSDL version 420,2013-01-25 13:37:00,
2013-01-25 08:43:00,11.8,-4.6,-100.00,WSW,248,0.0,4.0,43,0.00,,,0.00,WSDL version 420,2013-01-25 13:43:00,
2013-01-25 08:49:00,11.8,-4.5,29.50,WSW,248,1.7,4.0,43,0.00,,,0.00,WSDL version 420,2013-01-25 13:49:00,
2013-01-25 08:55:00,12.0,-4.4,29.50,WSW,248,0.8,2.9,43,0.00,,,0.00,WSDL version 420,2013-01-25 13:55:00,
2013-01-25 09:01:00,12.2,-4.2,29.50,WSW,248,1.3,2.7,43,-99.99,,,-99.99,WSDL version 420,2013-01-25 14:01:00,
2013-01-25 09:07:00,12.4,-4.0,29.50,WSW,248,1.2,2.7,43,0.00,,,0.00,WSDL version 420,2013-01-25 14:07:00,
2013-01-25 09:13:00,12.6,-3.9,29.50,WSW,248,1.2,2.9,43,0.00,,,0.00,WSDL version 420,2013-01-25 14:13:00,
2013-01-25 09:18:00,12.9,-3.5,29.50,WSW,248,1.2,2.9,43,-99.99,,,-99.99,WSDL version 420,2013-01-25 14:18:00,
2013-01-25 09:25:00,13.3,-3.2,29.50,WSW,248,1.9,2.9,43,-99.99,,,-99.99,WSDL version 420,2013-01-25 14:25:00,
2013-01-25 09:31:00,13.5,-3.0,29.50,WSW,248,0.9,2.9,43,0.00,,,0.00,WSDL version 420,2013-01-25 14:31:00,
2013-01-25 09:37:00,13.8,-1.9,29.50,WSW,248,1.0,3.1,55,0.00,,,0.00,WSDL version 420,2013-01-25 14:37:00,
2013-01-25 09:43:00,14.3,2.1,29.50,WSW,248,1.4,3.1,54,0.00,,,0.00,WSDL version 420,2013-01-25 14:43:00,
2013-01-25 09:50:00,15.3,3.4,29.50,WSW,248,0.3,2.0,55,0.00,,,0.00,WSDL version 420,2013-01-25 14:50:00,
2013-01-25 09:59:00,16.1,3.8,29.47,WSW,248,0.9,2.5,54,0.00,,,0.00,WSDL version 420,2013-01-25 14:59:00,
2013-01-25 10:05:00,16.8,4.5,29.47,WSW,248,0.5,2.0,54,0.00,,,0.00,WSDL version 420,2013-01-25 15:05:00,
2013-01-25 10:11:00,17.1,4.4,29.47,WSW,248,1.4,3.1,53,0.00,,,0.00,WSDL version 420,2013-01-25 15:11:00,
2013-01-25 10:18:00,16.9,3.4,29.47,SW,225,1.9,3.6,51,0.00,,,0.00,WSDL version 420,2013-01-25 15:18:00,
2013-01-25 10:24:00,16.9,3.4,29.47,SW,225,1.9,3.6,51,0.00,,,0.00,WSDL version 420,2013-01-25 15:24:00,
2013-01-25 10:30:00,16.6,2.8,29.47,SSW,205,1.8,3.8,50,0.00,,,0.00,WSDL version 420,2013-01-25 15:30:00,
2013-01-25 10:42:00,16.7,2.9,29.47,SW,233,1.1,2.0,50,-99.99,,,-99.99,WSDL version 420,2013-01-25 15:42:00,
2013-01-25 10:48:00,16.4,2.6,29.47,SSW,203,0.4,2.9,50,0.00,,,0.00,WSDL version 420,2013-01-25 15:48:00,
2013-01-25 10:55:00,16.2,2.4,29.47,WSW,243,1.8,2.9,50,-99.99,,,-99.99,WSDL version 420,2013-01-25 15:55:00,
2013-01-25 11:01:00,16.1,2.3,-100.00,SW,231,0.6,2.9,50,0.00,,,0.00,WSDL version 420,2013-01-25 16:01:00,
2013-01-25 11:07:00,16.4,2.7,29.44,SSW,203,0.6,2.7,51,0.00,,,0.00,WSDL version 420,2013-01-25 16:07:00,
2013-01-25 11:13:00,16.7,3.2,-100.00,SSW,203,1.1,3.4,50,-99.99,,,-99.99,WSDL version 420,2013-01-25 16:13:00,
2013-01-25 11:20:00,16.2,2.0,-100.00,SSW,203,1.8,3.8,49,0.00,,,0.00,WSDL version 420,2013-01-25 16:20:00,
2013-01-25 11:26:00,16.5,2.7,29.44,SSW,203,1.0,3.8,50,0.00,,,0.00,WSDL version 420,2013-01-25 16:26:00,
2013-01-25 11:32:00,16.5,2.7,-100.00,SSW,203,0.6,4.0,50,0.00,,,0.00,WSDL version 420,2013-01-25 16:32:00,
2013-01-25 11:42:00,16.7,2.7,29.44,SSW,203,1.5,2.9,49,0.00,,,0.00,WSDL version 420,2013-01-25 16:42:00,
2013-01-25 11:49:00,16.5,2.3,29.41,SSW,203,1.2,3.1,49,0.00,,,0.00,WSDL version 420,2013-01-25 16:49:00,
2013-01-25 11:55:00,16.6,2.4,29.41,SSW,203,0.8,3.1,49,0.00,,,0.00,WSDL version 420,2013-01-25 16:55:00,
2013-01-25 12:10:00,17.2,2.8,29.41,SSW,203,2.1,3.4,48,0.00,,,0.00,WSDL version 420,2013-01-25 17:10:00,
2013-01-25 12:16:00,17.3,2.7,29.38,SSW,203,2.2,3.8,48,0.00,,,0.00,WSDL version 420,2013-01-25 17:16:00,
2013-01-25 12:29:00,17.8,3.1,-100.00,SSW,203,1.6,4.3,48,0.00,,,0.00,WSDL version 420,2013-01-25 17:29:00,
2013-01-25 12:34:00,17.6,2.5,-100.00,SSW,203,2.9,3.6,47,0.00,,,0.00,WSDL version 420,2013-01-25 17:34:00,
2013-01-25 12:40:00,18.2,3.1,29.38,SW,225,1.5,3.6,47,0.00,,,0.00,WSDL version 420,2013-01-25 17:40:00,
2013-01-25 12:46:00,19.5,4.5,-100.00,SSW,203,1.4,2.7,47,0.00,,,0.00,WSDL version 420,2013-01-25 17:46:00,
2013-01-25 12:52:00,19.8,4.2,29.38,SW,219,1.5,3.6,46,0.00,,,0.00,WSDL version 420,2013-01-25 17:52:00,
2013-01-25 12:58:00,19.4,3.7,29.38,SSW,207,1.7,4.0,46,-99.99,,,-99.99,WSDL version 420,2013-01-25 17:58:00,
2013-01-25 13:04:00,19.6,3.6,29.35,SSW,203,2.2,3.6,45,0.00,,,0.00,WSDL version 420,2013-01-25 18:04:00,
2013-01-25 13:10:00,19.9,4.0,29.35,SSW,203,0.7,3.6,45,0.00,,,0.00,WSDL version 420,2013-01-25 18:10:00,
2013-01-25 13:16:00,19.9,3.8,29.35,SSW,203,1.6,2.7,45,0.00,,,0.00,WSDL version 420,2013-01-25 18:16:00,
2013-01-25 13:22:00,19.7,3.6,29.35,SSW,203,2.6,3.6,45,-99.99,,,-99.99,WSDL version 420,2013-01-25 18:22:00,
2013-01-25 13:28:00,20.0,4.0,29.35,SSW,203,1.6,3.6,45,0.00,,,0.00,WSDL version 420,2013-01-25 18:28:00,
2013-01-25 13:34:00,20.1,4.1,29.32,SSW,212,1.4,3.1,45,0.00,,,0.00,WSDL version 420,2013-01-25 18:34:00,
2013-01-25 13:40:00,19.6,3.6,29.32,SSW,203,2.0,4.3,45,0.00,,,0.00,WSDL version 420,2013-01-25 18:40:00,
2013-01-25 13:45:00,19.4,3.4,29.32,SSW,203,1.4,4.3,45,-99.99,,,-99.99,WSDL version 420,2013-01-25 18:45:00,
2013-01-25 13:51:00,19.3,3.3,29.32,SSW,203,1.8,3.4,45,0.00,,,0.00,WSDL version 420,2013-01-25 18:51:00,
2013-01-25 13:56:00,19.0,3.1,29.32,SSW,203,1.5,4.0,45,0.00,,,0.00,WSDL version 420,2013-01-25 18:56:00,
2013-01-25 14:04:00,19.0,3.1,29.32,SSW,203,1.5,3.4,45,-99.99,,,-99.99,WSDL version 420,2013-01-25 19:04:00,
2013-01-25 14:10:00,18.8,2.8,29.32,SSW,203,0.9,3.4,45,0.00,,,0.00,WSDL version 420,2013-01-25 19:10:00,
2013-01-25 14:16:00,18.7,2.8,29.32,SSW,203,0.4,2.9,45,0.00,,,0.00,WSDL version 420,2013-01-25 19:16:00,
2013-01-25 14:22:00,19.2,3.5,-100.00,SSW,203,1.8,2.9,45,0.00,,,0.00,WSDL version 420,2013-01-25 19:22:00,
2013-01-25 14:27:00,19.1,3.6,29.32,South,188,1.3,3.1,46,0.00,,,0.00,WSDL version 420,2013-01-25 19:27:00,
2013-01-25 14:39:00,19.4,3.8,29.32,SSE,158,0.4,2.9,46,0.00,,,0.00,WSDL version 420,2013-01-25 19:39:00,
2013-01-25 14:45:00,18.8,3.0,29.32,SSW,203,2.5,3.6,45,-99.99,,,-99.99,WSDL version 420,2013-01-25 19:45:00,
2013-01-25 14:52:00,18.0,2.5,-100.00,SSW,203,2.3,3.1,46,0.00,,,0.00,WSDL version 420,2013-01-25 19:52:00,
2013-01-25 14:58:00,18.1,2.6,29.29,SSW,203,0.6,3.1,46,-99.99,,,-99.99,WSDL version 420,2013-01-25 19:58:00,
2013-01-25 15:04:00,17.7,2.3,29.29,SSW,203,0.0,3.1,46,0.00,,,0.00,WSDL version 420,2013-01-25 20:04:00,
2013-01-25 15:12:00,17.6,2.5,29.29,SSW,203,0.4,3.4,47,0.00,,,0.00,WSDL version 420,2013-01-25 20:12:00,
2013-01-25 15:17:00,17.7,3.1,-100.00,South,180,1.3,2.7,48,0.00,,,0.00,WSDL version 420,2013-01-25 20:17:00,
2013-01-25 15:23:00,17.5,3.0,29.32,SSW,203,1.1,2.7,49,0.00,,,0.00,WSDL version 420,2013-01-25 20:23:00,
2013-01-25 15:29:00,17.4,3.4,29.29,SSW,203,0.9,2.7,50,0.00,,,0.00,WSDL version 420,2013-01-25 20:29:00,
2013-01-25 15:35:00,17.4,3.6,29.29,South,180,0.8,1.6,50,0.00,,,0.00,WSDL version 420,2013-01-25 20:35:00,
2013-01-25 15:42:00,16.9,3.1,29.29,SSW,203,1.6,2.5,50,0.00,,,0.00,WSDL version 420,2013-01-25 20:42:00,
2013-01-25 15:48:00,16.7,3.3,29.26,SSW,203,0.4,2.7,51,-99.99,,,-99.99,WSDL version 420,2013-01-25 20:48:00,
2013-01-25 15:54:00,16.6,3.6,-100.00,SSW,203,0.0,2.7,53,-99.99,,,-99.99,WSDL version 420,2013-01-25 20:54:00,
2013-01-25 16:02:00,16.2,3.7,29.26,SSW,203,1.5,2.7,54,0.00,,,0.00,WSDL version 420,2013-01-25 21:02:00,
2013-01-25 16:08:00,16.2,4.1,29.26,SSW,203,0.5,2.7,55,0.00,,,0.00,WSDL version 420,2013-01-25 21:08:00,
2013-01-25 16:14:00,16.1,4.2,29.26,SSW,203,1.1,2.5,55,0.00,,,0.00,WSDL version 420,2013-01-25 21:14:00,
2013-01-25 16:19:00,15.7,3.8,-100.00,SSW,203,1.1,2.7,55,0.00,,,0.00,WSDL version 420,2013-01-25 21:19:00,
2013-01-25 16:25:00,15.9,4.2,-100.00,SSW,203,1.1,2.7,56,0.00,,,0.00,WSDL version 420,2013-01-25 21:25:00,
2013-01-25 16:31:00,16.1,4.9,29.29,SSW,203,0.2,2.7,57,0.00,,,0.00,WSDL version 420,2013-01-25 21:31:00,
2013-01-25 16:37:00,16.0,4.8,29.29,SSW,203,0.0,1.6,57,0.00,,,0.00,WSDL version 420,2013-01-25 21:37:00,
2013-01-25 16:43:00,16.0,4.8,29.29,SSW,203,0.0,1.6,57,-99.99,,,-99.99,WSDL version 420,2013-01-25 21:43:00,
2013-01-25 16:49:00,15.8,4.6,29.26,SSW,203,0.0,1.3,57,0.00,,,0.00,WSDL version 420,2013-01-25 21:49:00,
2013-01-25 16:58:00,15.8,4.9,29.26,SSW,203,0.3,2.0,58,0.00,,,0.00,WSDL version 420,2013-01-25 21:58:00,
2013-01-25 17:10:00,15.4,4.6,29.26,SSW,203,0.0,1.1,58,0.00,,,0.00,WSDL version 420,2013-01-25 22:10:00,
2013-01-25 17:16:00,15.4,4.7,-100.00,SSW,203,0.0,1.1,59,0.00,,,0.00,WSDL version 420,2013-01-25 22:16:00,
2013-01-25 17:22:00,15.4,5.0,29.26,SSW,203,0.0,0.0,60,0.00,,,0.00,WSDL version 420,2013-01-25 22:22:00,
2013-01-25 17:28:00,15.4,5.2,29.26,SSW,203,0.0,1.3,60,0.00,,,0.00,WSDL version 420,2013-01-25 22:28:00,
2013-01-25 17:34:00,15.4,5.2,29.26,SSW,203,1.4,2.7,60,-99.99,,,-99.99,WSDL version 420,2013-01-25 22:34:00,
2013-01-25 17:40:00,15.3,5.1,29.26,SSW,203,0.0,2.7,60,-99.99,,,-99.99,WSDL version 420,2013-01-25 22:40:00,
2013-01-25 17:45:00,15.1,4.9,29.26,SSW,203,0.3,1.6,60,0.00,,,0.00,WSDL version 420,2013-01-25 22:45:00,
2013-01-25 17:50:00,15.1,5.1,29.26,SSW,203,0.0,1.3,61,-99.99,,,-99.99,WSDL version 420,2013-01-25 22:50:00,
2013-01-25 17:56:00,15.1,5.5,29.26,SSW,203,0.0,0.9,62,-99.99,,,-99.99,WSDL version 420,2013-01-25 22:56:00,
2013-01-25 18:02:00,15.1,5.5,29.23,SSW,203,0.0,0.0,62,-99.99,,,-99.99,WSDL version 420,2013-01-25 23:02:00,
2013-01-25 18:08:00,15.1,5.5,29.23,SSW,203,0.0,0.9,62,-99.99,,,-99.99,WSDL version 420,2013-01-25 23:08:00,
2013-01-25 18:14:00,14.9,5.0,29.26,SSW,203,0.2,1.1,61,0.00,,,0.00,WSDL version 420,2013-01-25 23:14:00,
2013-01-25 18:20:00,14.9,5.4,29.26,SSW,203,0.0,1.1,62,0.00,,,0.00,WSDL version 420,2013-01-25 23:20:00,
2013-01-25 18:26:00,14.7,5.3,29.26,SSW,203,0.0,0.0,63,0.00,,,0.00,WSDL version 420,2013-01-25 23:26:00,
2013-01-25 18:32:00,14.6,5.3,29.23,SSW,203,0.0,0.0,62,0.00,,,0.00,WSDL version 420,2013-01-25 23:32:00,
2013-01-25 18:38:00,14.5,5.0,29.23,SSW,203,0.0,1.1,62,0.00,,,0.00,WSDL version 420,2013-01-25 23:38:00,
2013-01-25 18:46:00,14.4,4.8,29.23,SSW,203,0.0,0.0,62,-99.99,,,-99.99,WSDL version 420,2013-01-25 23:46:00,
2013-01-25 18:52:00,14.4,4.9,29.23,SSW,203,0.0,0.9,63,0.00,,,0.00,WSDL version 420,2013-01-25 23:52:00,
2013-01-25 18:58:00,14.3,5.0,29.23,SSW,203,0.0,0.9,63,0.00,,,0.00,WSDL version 420,2013-01-25 23:58:00,
2013-01-25 19:04:00,14.2,4.7,29.23,SSW,203,0.0,0.9,62,0.00,,,0.00,WSDL version 420,2013-01-26 00:04:00,
2013-01-25 19:12:00,14.2,4.8,29.23,SSW,203,0.0,0.9,63,-99.99,,,-99.99,WSDL version 420,2013-01-26 00:12:00,
2013-01-25 19:18:00,14.3,5.1,29.23,SSW,203,0.0,1.1,63,0.00,,,0.00,WSDL version 420,2013-01-26 00:18:00,
2013-01-25 19:23:00,14.4,5.5,29.23,SSW,203,0.0,0.0,64,0.00,,,0.00,WSDL version 420,2013-01-26 00:23:00,
2013-01-25 19:31:00,14.2,5.3,29.23,SSW,203,0.0,0.9,64,0.00,,,0.00,WSDL version 420,2013-01-26 00:31:00,
2013-01-25 19:37:00,14.1,5.2,29.23,SSW,203,0.0,0.9,64,0.00,,,0.00,WSDL version 420,2013-01-26 00:37:00,
2013-01-25 19:44:00,13.9,5.0,29.23,SSW,203,0.0,0.0,64,0.00,,,0.00,WSDL version 420,2013-01-26 00:44:00,
2013-01-25 19:50:00,13.8,4.9,29.21,SSW,203,0.0,0.9,64,-99.99,,,-99.99,WSDL version 420,2013-01-26 00:50:00,
2013-01-25 19:56:00,13.9,5.3,29.21,SSW,203,0.0,1.6,65,0.00,,,0.00,WSDL version 420,2013-01-26 00:56:00,
2013-01-25 20:02:00,13.8,5.2,29.23,SSW,203,0.0,1.3,65,0.00,,,0.00,WSDL version 420,2013-01-26 01:02:00,
2013-01-25 20:08:00,13.6,5.1,29.23,SSW,203,0.0,1.3,65,0.00,,,0.00,WSDL version 420,2013-01-26 01:08:00,
2013-01-25 20:14:00,13.6,5.0,29.23,SSW,203,0.9,2.2,65,0.00,,,0.00,WSDL version 420,2013-01-26 01:14:00,
2013-01-25 20:20:00,13.2,4.7,29.23,SSW,203,0.0,2.2,65,0.00,,,0.00,WSDL version 420,2013-01-26 01:20:00,
2013-01-25 20:26:00,12.9,4.3,29.23,SSW,203,0.0,1.1,65,0.00,,,0.00,WSDL version 420,2013-01-26 01:26:00,
2013-01-25 20:32:00,12.6,4.1,29.23,SSW,203,0.0,1.1,65,0.00,,,0.00,WSDL version 420,2013-01-26 01:32:00,
2013-01-25 20:38:00,12.3,3.8,29.23,SSW,203,0.0,1.3,65,0.00,,,0.00,WSDL version 420,2013-01-26 01:38:00,
2013-01-25 20:44:00,12.0,3.5,29.23,SSW,203,0.0,0.0,65,0.00,,,0.00,WSDL version 420,2013-01-26 01:44:00,
2013-01-25 20:50:00,11.8,3.3,29.21,SSW,203,0.0,0.0,65,0.00,,,0.00,WSDL version 420,2013-01-26 01:50:00,
2013-01-25 20:56:00,11.4,2.9,29.21,SSW,203,0.0,0.0,65,0.00,,,0.00,WSDL version 420,2013-01-26 01:56:00,
2013-01-25 21:02:00,11.3,2.8,29.21,SSW,203,0.0,0.0,65,-99.99,,,-99.99,WSDL version 420,2013-01-26 02:02:00,
2013-01-25 21:09:00,11.0,2.6,29.21,SSW,203,0.4,1.6,65,0.00,,,0.00,WSDL version 420,2013-01-26 02:09:00,
2013-01-25 21:15:00,10.7,2.2,29.21,SSW,203,0.0,1.3,65,-99.99,,,-99.99,WSDL version 420,2013-01-26 02:15:00,
2013-01-25 21:21:00,10.4,2.0,29.21,SSW,203,0.0,1.6,65,-99.99,,,-99.99,WSDL version 420,2013-01-26 02:21:00,
2013-01-25 21:29:00,10.1,1.7,29.21,SSW,203,0.0,1.6,65,0.00,,,0.00,WSDL version 420,2013-01-26 02:29:00,
2013-01-25 21:34:00,9.9,1.4,29.21,SSW,203,0.0,0.9,65,0.00,,,0.00,WSDL version 420,2013-01-26 02:34:00,
2013-01-25 21:40:00,9.7,1.3,29.21,SSW,203,0.4,1.3,65,0.00,,,0.00,WSDL version 420,2013-01-26 02:40:00,
2013-01-25 21:46:00,9.5,1.1,29.21,SSW,203,0.0,1.3,65,0.00,,,0.00,WSDL version 420,2013-01-26 02:46:00,
2013-01-25 21:52:00,9.2,0.8,29.21,SSW,203,0.0,0.0,65,0.00,,,0.00,WSDL version 420,2013-01-26 02:52:00,
2013-01-25 21:58:00,8.8,0.4,29.21,SSW,203,0.0,0.0,65,0.00,,,0.00,WSDL version 420,2013-01-26 02:58:00,
2013-01-25 22:04:00,8.7,0.4,29.21,SSW,203,0.0,0.0,65,0.00,,,0.00,WSDL version 420,2013-01-26 03:04:00,
2013-01-25 22:11:00,8.5,0.1,29.21,SSW,203,0.0,0.0,65,0.00,,,0.00,WSDL version 420,2013-01-26 03:11:00,
2013-01-25 22:17:00,8.2,-0.1,29.21,SSW,203,0.0,0.0,65,-99.99,,,-99.99,WSDL version 420,2013-01-26 03:17:00,
2013-01-25 22:23:00,8.0,-0.3,29.21,SSW,203,0.0,0.0,65,0.00,,,0.00,WSDL version 420,2013-01-26 03:23:00,
2013-01-25 22:29:00,7.9,-0.5,29.21,SSW,203,0.0,0.0,65,0.00,,,0.00,WSDL version 420,2013-01-26 03:29:00,
2013-01-25 22:34:00,7.7,-0.7,29.21,SSW,203,0.0,0.0,65,0.00,,,0.00,WSDL version 420,2013-01-26 03:34:00,
2013-01-25 22:40:00,7.5,-0.8,29.21,SSW,203,0.0,0.0,65,0.00,,,0.00,WSDL version 420,2013-01-26 03:40:00,
2013-01-25 22:46:00,7.5,-0.8,29.21,SSW,203,0.0,0.0,65,0.00,,,0.00,WSDL version 420,2013-01-26 03:46:00,
2013-01-25 22:52:00,7.3,-1.1,29.21,SSW,203,0.0,0.0,65,0.00,,,0.00,WSDL version 420,2013-01-26 03:52:00,
2013-01-25 22:58:00,7.1,-1.3,29.21,SSW,203,0.0,0.0,65,0.00,,,0.00,WSDL version 420,2013-01-26 03:58:00,
2013-01-25 23:07:00,6.8,-1.5,29.21,SSW,203,0.0,0.0,65,0.00,,,0.00,WSDL version 420,2013-01-26 04:07:00,
2013-01-25 23:13:00,6.5,-1.8,29.21,SSW,203,0.0,0.0,65,0.00,,,0.00,WSDL version 420,2013-01-26 04:13:00,
2013-01-25 23:18:00,6.4,-2.0,29.23,SSW,203,0.0,0.0,65,-99.99,,,-99.99,WSDL version 420,2013-01-26 04:18:00,
2013-01-25 23:25:00,6.2,-2.1,29.23,SSW,203,0.0,0.0,65,-99.99,,,-99.99,WSDL version 420,2013-01-26 04:25:00,
2013-01-25 23:30:00,6.0,-2.3,29.21,SSW,203,0.0,0.0,65,-99.99,,,-99.99,WSDL version 420,2013-01-26 04:30:00,
2013-01-25 23:36:00,5.6,-2.7,29.21,SSW,203,0.0,0.0,65,0.00,,,0.00,WSDL version 420,2013-01-26 04:36:00,
2013-01-25 23:41:00,5.5,-2.7,29.21,SSW,203,0.0,0.0,65,0.00,,,0.00,WSDL version 420,2013-01-26 04:41:00,
2013-01-25 23:49:00,5.2,-3.1,29.21,SSW,203,0.0,0.0,65,0.00,,,0.00,WSDL version 420,2013-01-26 04:49:00,
2013-01-25 23:55:00,5.0,-3.3,29.21,SSW,203,0.0,0.0,65,0.00,,,0.00,WSDL version 420,2013-01-26 04:55:00,